Airfield :
LOGIN :

Register | Disclaimer

   EN    FR    IT 

 










Legend :    VFR   Marginal VFR   IFR   Intensive IFR   Very Intensive IFR
Visi :
Ceiling :
>= 8 km
>= 3000ft
5 to 8 km
1000 to 3000 ft
1500m to 5 km
500 to 1000 ft
800 to 1500m
200 to 500 ft
< 800m
< 200 ft
Symbols :   Thunderstorms  Fog  Heavy snow  Heavy precipitations  Wind > 20 kt
SIGMETs :     Misc.  Thunderstorms  Icing  Turbulence  Mountain Waves  Volcanic Ashes







- Airport Elevation : 142 ft
- IATA code : FLR


LIRQ - Firenze Amerigo Vespucci

CURRENT METAR :
  • 211450Z 19009KT 160V220 9999 SCT055 31/17 Q1009

EXPIRED METARs :
  • 211420Z 18008KT 150V230 9999 BKN055 33/17 Q1009
  • 211350Z 18008KT 130V220 9999 SCT055 32/19 Q1010
  • 211320Z 19010KT 160V220 9999 SCT055 32/18 Q1010
  • 211250Z VRB04KT 9999 SCT055 30/17 Q1010
  • 211220Z 17006KT 120V260 9999 SCT050 31/15 Q1011

TAF TAF LIRQ
Valid from the 21 at 12:00 until the 22 at 12:00 UTC


211100Z 2112/2212 22012KT 9999 SCT030
TEMPO 2112/2118 SHRA
BECMG 2118/2120 VRB05KT
BECMG 2208/2210 22012KT
TEMPO 2209/2212 TSRA
No reported NOTAMs for that airfield.
3 SIGMETs reported for the Milano FIR (LIMM) :
 
SIGMET 7  cancelation
LIMM SIGMET 9 VALID 211353/211635 LIIP
LIMM MILANO FIR CNL SIGMET 7 211235/211635=
Embedded thunderstorms
LIMM SIGMET 8 VALID 211400/211800 LIIP
LIMM MILANO FIR EMBD TS OBS ENTIRE FIR TOP ABV FL400 STNR NC=
SIGMET 7  CANCELED :
Embedded thunderstorms
LIMM SIGMET 7 VALID 211235/211635 LIIP
LIMM MILANO FIR EMBD TS OBS NW OF LINE N4338 E01123 - N4517 E01306 TOP ABV FL400 STNR NC=



MET'MAP, your aeronautical weather chart ! - Copyright ORBIFLY December 2007 - Disclaimer

ORBIFLY MET'MAP TEAM :

Programming & Development : Alexandra Zaïnal
Concept & Development : Baudouin d'Aumeries
Co-Development & Prog : Marc-Olivier Méhu
Technical & hardware support : Manuel Goepfert

Contact : metmap@orbifly.com




SOURCES & CREDITS :

   NOAA